sensor_id;sensor_type;location;lat;lon;timestamp;P1;durP1;ratioP1;P2;durP2;ratioP2
55248;SDS011;44369;43.560;19.540;2022-07-05T00:02:04;18.55;;;14.15;;
55248;SDS011;44369;43.560;19.540;2022-07-05T00:04:30;16.20;;;14.32;;
55248;SDS011;44369;43.560;19.540;2022-07-05T00:06:55;16.73;;;15.07;;
55248;SDS011;44369;43.560;19.540;2022-07-05T00:09:40;18.00;;;14.27;;
55248;SDS011;44369;43.560;19.540;2022-07-05T00:12:05;16.02;;;14.30;;
55248;SDS011;44369;43.560;19.540;2022-07-05T00:14:31;15.90;;;12.45;;
55248;SDS011;44369;43.560;19.540;2022-07-05T00:16:57;14.55;;;13.20;;
55248;SDS011;44369;43.560;19.540;2022-07-05T00:19:23;15.23;;;13.73;;
55248;SDS011;44369;43.560;19.540;2022-07-05T00:21:48;16.58;;;13.98;;
55248;SDS011;44369;43.560;19.540;2022-07-05T00:24:14;16.58;;;13.65;;
55248;SDS011;44369;43.560;19.540;2022-07-05T00:26:40;15.82;;;13.45;;
55248;SDS011;44369;43.560;19.540;2022-07-05T00:29:05;15.63;;;13.55;;
55248;SDS011;44369;43.560;19.540;2022-07-05T00:31:31;17.95;;;13.40;;
55248;SDS011;44369;43.560;19.540;2022-07-05T00:33:57;14.80;;;13.30;;
55248;SDS011;44369;43.560;19.540;2022-07-05T00:36:22;16.15;;;13.65;;
55248;SDS011;44369;43.560;19.540;2022-07-05T00:38:48;15.95;;;14.35;;
55248;SDS011;44369;43.560;19.540;2022-07-05T00:41:14;16.10;;;14.35;;
55248;SDS011;44369;43.560;19.540;2022-07-05T00:43:52;15.10;;;13.50;;
55248;SDS011;44369;43.560;19.540;2022-07-05T00:46:26;14.82;;;13.32;;
55248;SDS011;44369;43.560;19.540;2022-07-05T00:48:52;15.38;;;13.80;;
55248;SDS011;44369;43.560;19.540;2022-07-05T00:51:18;15.85;;;14.35;;
55248;SDS011;44369;43.560;19.540;2022-07-05T00:53:45;15.35;;;13.85;;
55248;SDS011;44369;43.560;19.540;2022-07-05T00:56:11;17.83;;;14.35;;
55248;SDS011;44369;43.560;19.540;2022-07-05T00:58:38;15.93;;;13.98;;
55248;SDS011;44369;43.560;19.540;2022-07-05T01:01:05;17.00;;;13.32;;
55248;SDS011;44369;43.560;19.540;2022-07-05T01:03:32;16.75;;;13.13;;
55248;SDS011;44369;43.560;19.540;2022-07-05T01:05:58;15.00;;;13.38;;
55248;SDS011;44369;43.560;19.540;2022-07-05T01:08:29;15.52;;;14.02;;
55248;SDS011;44369;43.560;19.540;2022-07-05T01:10:57;16.65;;;14.20;;
55248;SDS011;44369;43.560;19.540;2022-07-05T01:13:23;15.00;;;12.93;;
55248;SDS011;44369;43.560;19.540;2022-07-05T01:15:50;20.13;;;15.15;;
55248;SDS011;44369;43.560;19.540;2022-07-05T01:18:16;15.65;;;13.48;;
55248;SDS011;44369;43.560;19.540;2022-07-05T01:20:43;15.50;;;13.90;;
55248;SDS011;44369;43.560;19.540;2022-07-05T01:23:09;14.52;;;12.95;;
55248;SDS011;44369;43.560;19.540;2022-07-05T01:25:35;16.17;;;14.52;;
55248;SDS011;44369;43.560;19.540;2022-07-05T01:28:01;16.08;;;14.57;;
55248;SDS011;44369;43.560;19.540;2022-07-05T01:30:28;16.50;;;14.02;;
55248;SDS011;44369;43.560;19.540;2022-07-05T01:32:56;14.75;;;13.25;;
55248;SDS011;44369;43.560;19.540;2022-07-05T01:35:21;14.88;;;13.40;;
55248;SDS011;44369;43.560;19.540;2022-07-05T01:37:48;15.35;;;13.80;;
55248;SDS011;44369;43.560;19.540;2022-07-05T01:40:15;15.35;;;13.75;;
55248;SDS011;44369;43.560;19.540;2022-07-05T01:42:42;16.17;;;14.57;;
55248;SDS011;44369;43.560;19.540;2022-07-05T01:45:08;14.82;;;12.80;;
55248;SDS011;44369;43.560;19.540;2022-07-05T01:47:42;14.68;;;13.20;;
55248;SDS011;44369;43.560;19.540;2022-07-05T01:50:09;14.38;;;13.07;;
55248;SDS011;44369;43.560;19.540;2022-07-05T01:52:38;15.38;;;13.85;;
55248;SDS011;44369;43.560;19.540;2022-07-05T01:55:08;16.90;;;14.25;;
55248;SDS011;44369;43.560;19.540;2022-07-05T01:57:35;15.20;;;13.50;;
55248;SDS011;44369;43.560;19.540;2022-07-05T02:00:00;15.63;;;13.73;;
55248;SDS011;44369;43.560;19.540;2022-07-05T02:02:26;14.15;;;12.65;;
55248;SDS011;44369;43.560;19.540;2022-07-05T02:04:52;15.40;;;13.45;;
55248;SDS011;44369;43.560;19.540;2022-07-05T02:07:17;15.35;;;13.77;;
55248;SDS011;44369;43.560;19.540;2022-07-05T02:09:43;15.40;;;13.73;;
55248;SDS011;44369;43.560;19.540;2022-07-05T02:12:09;14.02;;;12.60;;
55248;SDS011;44369;43.560;19.540;2022-07-05T02:14:34;14.30;;;12.90;;
55248;SDS011;44369;43.560;19.540;2022-07-05T02:17:00;16.23;;;13.05;;
55248;SDS011;44369;43.560;19.540;2022-07-05T02:19:26;13.68;;;12.27;;
55248;SDS011;44369;43.560;19.540;2022-07-05T02:21:52;14.35;;;12.98;;
55248;SDS011;44369;43.560;19.540;2022-07-05T02:24:19;16.02;;;14.25;;
55248;SDS011;44369;43.560;19.540;2022-07-05T02:26:45;15.18;;;13.68;;
55248;SDS011;44369;43.560;19.540;2022-07-05T02:29:12;17.45;;;14.73;;
55248;SDS011;44369;43.560;19.540;2022-07-05T02:31:38;16.48;;;14.73;;
55248;SDS011;44369;43.560;19.540;2022-07-05T02:34:03;16.27;;;14.55;;
55248;SDS011;44369;43.560;19.540;2022-07-05T02:36:29;16.70;;;13.65;;
55248;SDS011;44369;43.560;19.540;2022-07-05T02:38:55;16.00;;;14.32;;
55248;SDS011;44369;43.560;19.540;2022-07-05T02:41:20;16.27;;;14.40;;
55248;SDS011;44369;43.560;19.540;2022-07-05T02:43:46;16.02;;;13.68;;
55248;SDS011;44369;43.560;19.540;2022-07-05T02:46:12;16.60;;;14.80;;
55248;SDS011;44369;43.560;19.540;2022-07-05T02:48:37;16.77;;;15.07;;
55248;SDS011;44369;43.560;19.540;2022-07-05T02:51:03;15.50;;;13.98;;
55248;SDS011;44369;43.560;19.540;2022-07-05T02:53:30;16.25;;;13.73;;
55248;SDS011;44369;43.560;19.540;2022-07-05T02:55:56;17.02;;;15.18;;
55248;SDS011;44369;43.560;19.540;2022-07-05T02:58:21;17.40;;;15.57;;
55248;SDS011;44369;43.560;19.540;2022-07-05T03:00:47;15.90;;;14.23;;
55248;SDS011;44369;43.560;19.540;2022-07-05T03:03:14;15.65;;;13.88;;
55248;SDS011;44369;43.560;19.540;2022-07-05T03:05:40;21.05;;;14.13;;
55248;SDS011;44369;43.560;19.540;2022-07-05T03:08:06;17.83;;;15.35;;
55248;SDS011;44369;43.560;19.540;2022-07-05T03:10:33;16.00;;;14.25;;
55248;SDS011;44369;43.560;19.540;2022-07-05T03:12:59;14.77;;;13.02;;
55248;SDS011;44369;43.560;19.540;2022-07-05T03:15:25;15.73;;;14.00;;
55248;SDS011;44369;43.560;19.540;2022-07-05T03:17:51;18.60;;;15.25;;
55248;SDS011;44369;43.560;19.540;2022-07-05T03:20:16;17.70;;;13.25;;
55248;SDS011;44369;43.560;19.540;2022-07-05T03:22:42;16.00;;;13.73;;
55248;SDS011;44369;43.560;19.540;2022-07-05T03:25:08;14.98;;;13.57;;
55248;SDS011;44369;43.560;19.540;2022-07-05T03:27:34;20.60;;;14.68;;
55248;SDS011;44369;43.560;19.540;2022-07-05T03:30:01;16.17;;;14.45;;
55248;SDS011;44369;43.560;19.540;2022-07-05T03:32:28;18.63;;;15.20;;
55248;SDS011;44369;43.560;19.540;2022-07-05T03:34:53;17.27;;;15.50;;
55248;SDS011;44369;43.560;19.540;2022-07-05T03:37:19;22.20;;;17.20;;
55248;SDS011;44369;43.560;19.540;2022-07-05T03:39:44;21.75;;;19.40;;
55248;SDS011;44369;43.560;19.540;2022-07-05T03:42:10;23.50;;;20.98;;
55248;SDS011;44369;43.560;19.540;2022-07-05T03:44:36;24.65;;;20.48;;
55248;SDS011;44369;43.560;19.540;2022-07-05T03:47:02;20.02;;;15.80;;
55248;SDS011;44369;43.560;19.540;2022-07-05T03:49:27;16.88;;;15.27;;
55248;SDS011;44369;43.560;19.540;2022-07-05T03:51:53;18.13;;;15.88;;
55248;SDS011;44369;43.560;19.540;2022-07-05T03:54:19;21.88;;;15.50;;
55248;SDS011;44369;43.560;19.540;2022-07-05T03:56:44;20.40;;;15.55;;
55248;SDS011;44369;43.560;19.540;2022-07-05T03:59:10;15.55;;;13.90;;
55248;SDS011;44369;43.560;19.540;2022-07-05T04:01:36;21.25;;;15.10;;
55248;SDS011;44369;43.560;19.540;2022-07-05T04:04:01;15.20;;;13.20;;
55248;SDS011;44369;43.560;19.540;2022-07-05T04:06:27;14.55;;;13.25;;
55248;SDS011;44369;43.560;19.540;2022-07-05T04:08:53;13.82;;;12.52;;
55248;SDS011;44369;43.560;19.540;2022-07-05T04:11:20;15.02;;;13.52;;
55248;SDS011;44369;43.560;19.540;2022-07-05T04:13:45;14.65;;;13.15;;
55248;SDS011;44369;43.560;19.540;2022-07-05T04:16:11;15.05;;;12.43;;
55248;SDS011;44369;43.560;19.540;2022-07-05T04:18:37;14.20;;;12.80;;
55248;SDS011;44369;43.560;19.540;2022-07-05T04:21:03;13.80;;;12.57;;
55248;SDS011;44369;43.560;19.540;2022-07-05T04:23:29;13.27;;;12.02;;
55248;SDS011;44369;43.560;19.540;2022-07-05T04:25:55;13.57;;;12.25;;
55248;SDS011;44369;43.560;19.540;2022-07-05T04:28:21;13.70;;;12.32;;
55248;SDS011;44369;43.560;19.540;2022-07-05T04:30:47;12.80;;;11.60;;
55248;SDS011;44369;43.560;19.540;2022-07-05T04:33:12;16.60;;;12.18;;
55248;SDS011;44369;43.560;19.540;2022-07-05T04:35:38;14.52;;;13.15;;
55248;SDS011;44369;43.560;19.540;2022-07-05T04:38:04;11.70;;;10.70;;
55248;SDS011;44369;43.560;19.540;2022-07-05T04:40:29;11.93;;;10.70;;
55248;SDS011;44369;43.560;19.540;2022-07-05T04:42:55;15.38;;;12.20;;
55248;SDS011;44369;43.560;19.540;2022-07-05T04:45:21;15.02;;;11.95;;
55248;SDS011;44369;43.560;19.540;2022-07-05T04:47:47;12.77;;;11.60;;
55248;SDS011;44369;43.560;19.540;2022-07-05T04:50:13;12.02;;;10.82;;
55248;SDS011;44369;43.560;19.540;2022-07-05T04:52:39;13.80;;;12.38;;
55248;SDS011;44369;43.560;19.540;2022-07-05T04:55:04;14.10;;;12.40;;
55248;SDS011;44369;43.560;19.540;2022-07-05T04:57:40;15.20;;;10.55;;
55248;SDS011;44369;43.560;19.540;2022-07-05T05:00:07;19.90;;;13.15;;
55248;SDS011;44369;43.560;19.540;2022-07-05T05:02:34;13.25;;;11.95;;
55248;SDS011;44369;43.560;19.540;2022-07-05T05:05:00;13.38;;;11.43;;
55248;SDS011;44369;43.560;19.540;2022-07-05T05:07:26;14.32;;;12.98;;
55248;SDS011;44369;43.560;19.540;2022-07-05T05:09:52;17.40;;;14.13;;
55248;SDS011;44369;43.560;19.540;2022-07-05T05:12:18;18.50;;;12.85;;
55248;SDS011;44369;43.560;19.540;2022-07-05T05:14:43;14.85;;;12.40;;
55248;SDS011;44369;43.560;19.540;2022-07-05T05:17:09;17.00;;;12.43;;
55248;SDS011;44369;43.560;19.540;2022-07-05T05:19:35;17.20;;;12.50;;
55248;SDS011;44369;43.560;19.540;2022-07-05T05:22:00;16.60;;;14.00;;
55248;SDS011;44369;43.560;19.540;2022-07-05T05:24:26;13.77;;;12.20;;
55248;SDS011;44369;43.560;19.540;2022-07-05T05:26:52;18.40;;;13.40;;
55248;SDS011;44369;43.560;19.540;2022-07-05T05:29:18;15.45;;;13.88;;
55248;SDS011;44369;43.560;19.540;2022-07-05T05:31:45;16.35;;;12.48;;
55248;SDS011;44369;43.560;19.540;2022-07-05T05:34:11;14.85;;;11.95;;
55248;SDS011;44369;43.560;19.540;2022-07-05T05:36:37;12.27;;;11.07;;
55248;SDS011;44369;43.560;19.540;2022-07-05T05:39:03;14.05;;;10.63;;
55248;SDS011;44369;43.560;19.540;2022-07-05T05:41:29;12.13;;;10.95;;
55248;SDS011;44369;43.560;19.540;2022-07-05T05:43:55;11.10;;;9.30;;
55248;SDS011;44369;43.560;19.540;2022-07-05T05:46:21;9.80;;;9.00;;
55248;SDS011;44369;43.560;19.540;2022-07-05T05:48:46;10.43;;;9.07;;
55248;SDS011;44369;43.560;19.540;2022-07-05T05:51:12;12.70;;;9.52;;
55248;SDS011;44369;43.560;19.540;2022-07-05T05:53:38;10.38;;;9.18;;
55248;SDS011;44369;43.560;19.540;2022-07-05T05:56:04;11.15;;;10.00;;
55248;SDS011;44369;43.560;19.540;2022-07-05T05:58:30;11.23;;;9.20;;
55248;SDS011;44369;43.560;19.540;2022-07-05T06:00:55;13.20;;;9.27;;
55248;SDS011;44369;43.560;19.540;2022-07-05T06:03:25;9.63;;;8.50;;
55248;SDS011;44369;43.560;19.540;2022-07-05T06:05:52;14.13;;;9.60;;
55248;SDS011;44369;43.560;19.540;2022-07-05T06:08:18;12.77;;;10.50;;
55248;SDS011;44369;43.560;19.540;2022-07-05T06:10:44;10.70;;;9.63;;
55248;SDS011;44369;43.560;19.540;2022-07-05T06:13:11;17.05;;;8.95;;
55248;SDS011;44369;43.560;19.540;2022-07-05T06:15:37;10.07;;;9.02;;
55248;SDS011;44369;43.560;19.540;2022-07-05T06:18:04;10.32;;;8.77;;
55248;SDS011;44369;43.560;19.540;2022-07-05T06:20:32;12.95;;;9.95;;
55248;SDS011;44369;43.560;19.540;2022-07-05T06:22:59;10.83;;;9.53;;
55248;SDS011;44369;43.560;19.540;2022-07-05T06:25:26;10.63;;;9.13;;
55248;SDS011;44369;43.560;19.540;2022-07-05T06:27:56;12.13;;;10.07;;
55248;SDS011;44369;43.560;19.540;2022-07-05T06:30:23;9.63;;;8.63;;
55248;SDS011;44369;43.560;19.540;2022-07-05T06:35:17;8.98;;;8.13;;
55248;SDS011;44369;43.560;19.540;2022-07-05T06:37:53;10.13;;;9.07;;
55248;SDS011;44369;43.560;19.540;2022-07-05T06:42:49;9.98;;;9.07;;
55248;SDS011;44369;43.560;19.540;2022-07-05T06:45:16;10.93;;;8.85;;
55248;SDS011;44369;43.560;19.540;2022-07-05T06:47:41;14.00;;;9.32;;
55248;SDS011;44369;43.560;19.540;2022-07-05T06:50:08;10.15;;;9.15;;
55248;SDS011;44369;43.560;19.540;2022-07-05T06:52:35;9.95;;;9.07;;
55248;SDS011;44369;43.560;19.540;2022-07-05T06:55:02;11.00;;;9.88;;
55248;SDS011;44369;43.560;19.540;2022-07-05T06:57:28;12.73;;;9.60;;
55248;SDS011;44369;43.560;19.540;2022-07-05T06:59:54;17.17;;;10.60;;
55248;SDS011;44369;43.560;19.540;2022-07-05T07:02:20;11.07;;;10.10;;
55248;SDS011;44369;43.560;19.540;2022-07-05T07:04:46;10.32;;;9.45;;
55248;SDS011;44369;43.560;19.540;2022-07-05T07:07:12;9.48;;;8.52;;
55248;SDS011;44369;43.560;19.540;2022-07-05T07:09:57;11.68;;;9.63;;
55248;SDS011;44369;43.560;19.540;2022-07-05T07:12:23;10.60;;;9.70;;
55248;SDS011;44369;43.560;19.540;2022-07-05T07:14:49;14.95;;;13.38;;
55248;SDS011;44369;43.560;19.540;2022-07-05T07:17:15;9.75;;;8.50;;
55248;SDS011;44369;43.560;19.540;2022-07-05T07:19:40;10.35;;;9.35;;
55248;SDS011;44369;43.560;19.540;2022-07-05T07:22:06;11.60;;;9.45;;
55248;SDS011;44369;43.560;19.540;2022-07-05T07:24:32;8.77;;;8.07;;
55248;SDS011;44369;43.560;19.540;2022-07-05T07:26:57;9.63;;;8.70;;
55248;SDS011;44369;43.560;19.540;2022-07-05T07:29:33;9.88;;;9.07;;
55248;SDS011;44369;43.560;19.540;2022-07-05T07:32:00;9.10;;;8.40;;
55248;SDS011;44369;43.560;19.540;2022-07-05T07:34:28;10.20;;;9.20;;
55248;SDS011;44369;43.560;19.540;2022-07-05T07:36:54;10.05;;;9.07;;
55248;SDS011;44369;43.560;19.540;2022-07-05T07:39:21;10.88;;;9.55;;
55248;SDS011;44369;43.560;19.540;2022-07-05T07:41:47;9.57;;;8.73;;
55248;SDS011;44369;43.560;19.540;2022-07-05T07:44:13;10.48;;;9.35;;
55248;SDS011;44369;43.560;19.540;2022-07-05T07:46:38;8.98;;;8.13;;
55248;SDS011;44369;43.560;19.540;2022-07-05T07:49:05;10.30;;;8.85;;
55248;SDS011;44369;43.560;19.540;2022-07-05T07:51:31;9.20;;;8.27;;
55248;SDS011;44369;43.560;19.540;2022-07-05T07:53:57;9.95;;;8.40;;
55248;SDS011;44369;43.560;19.540;2022-07-05T07:56:23;11.02;;;9.90;;
55248;SDS011;44369;43.560;19.540;2022-07-05T07:58:49;9.85;;;8.95;;
55248;SDS011;44369;43.560;19.540;2022-07-05T08:01:15;9.20;;;8.40;;
55248;SDS011;44369;43.560;19.540;2022-07-05T08:03:41;9.55;;;8.65;;
55248;SDS011;44369;43.560;19.540;2022-07-05T08:06:08;9.50;;;8.68;;
55248;SDS011;44369;43.560;19.540;2022-07-05T08:08:35;13.18;;;8.98;;
55248;SDS011;44369;43.560;19.540;2022-07-05T08:11:05;8.18;;;7.38;;
55248;SDS011;44369;43.560;19.540;2022-07-05T08:13:32;9.45;;;8.60;;
55248;SDS011;44369;43.560;19.540;2022-07-05T08:15:58;7.88;;;7.07;;
55248;SDS011;44369;43.560;19.540;2022-07-05T08:18:24;8.48;;;7.60;;
55248;SDS011;44369;43.560;19.540;2022-07-05T08:21:09;9.77;;;7.63;;
55248;SDS011;44369;43.560;19.540;2022-07-05T08:23:54;8.50;;;7.22;;
55248;SDS011;44369;43.560;19.540;2022-07-05T08:26:19;9.18;;;8.20;;
55248;SDS011;44369;43.560;19.540;2022-07-05T08:28:45;7.72;;;7.03;;
55248;SDS011;44369;43.560;19.540;2022-07-05T08:31:11;7.70;;;6.82;;
55248;SDS011;44369;43.560;19.540;2022-07-05T08:33:37;8.10;;;7.30;;
55248;SDS011;44369;43.560;19.540;2022-07-05T08:36:03;8.55;;;7.72;;
55248;SDS011;44369;43.560;19.540;2022-07-05T08:38:29;15.75;;;8.07;;
55248;SDS011;44369;43.560;19.540;2022-07-05T08:40:55;8.55;;;7.78;;
55248;SDS011;44369;43.560;19.540;2022-07-05T08:43:22;9.48;;;7.82;;
55248;SDS011;44369;43.560;19.540;2022-07-05T08:45:49;8.23;;;7.43;;
55248;SDS011;44369;43.560;19.540;2022-07-05T08:48:15;9.60;;;7.65;;
55248;SDS011;44369;43.560;19.540;2022-07-05T08:50:41;9.07;;;8.05;;
55248;SDS011;44369;43.560;19.540;2022-07-05T08:53:09;11.35;;;7.70;;
55248;SDS011;44369;43.560;19.540;2022-07-05T08:55:35;8.48;;;7.78;;
55248;SDS011;44369;43.560;19.540;2022-07-05T08:58:01;9.02;;;7.10;;
55248;SDS011;44369;43.560;19.540;2022-07-05T09:00:27;9.02;;;7.65;;
55248;SDS011;44369;43.560;19.540;2022-07-05T09:02:53;8.55;;;6.90;;
55248;SDS011;44369;43.560;19.540;2022-07-05T09:05:20;8.60;;;7.80;;
55248;SDS011;44369;43.560;19.540;2022-07-05T09:07:50;8.55;;;7.75;;
55248;SDS011;44369;43.560;19.540;2022-07-05T09:10:24;12.07;;;9.05;;
55248;SDS011;44369;43.560;19.540;2022-07-05T09:12:51;9.82;;;7.88;;
55248;SDS011;44369;43.560;19.540;2022-07-05T09:15:17;9.02;;;8.13;;
55248;SDS011;44369;43.560;19.540;2022-07-05T09:17:43;8.95;;;7.90;;
55248;SDS011;44369;43.560;19.540;2022-07-05T09:20:13;13.88;;;8.65;;
55248;SDS011;44369;43.560;19.540;2022-07-05T09:22:47;10.88;;;8.88;;
55248;SDS011;44369;43.560;19.540;2022-07-05T09:25:21;9.25;;;8.27;;
55248;SDS011;44369;43.560;19.540;2022-07-05T09:33:20;9.15;;;8.35;;
55248;SDS011;44369;43.560;19.540;2022-07-05T09:35:51;10.38;;;9.30;;
55248;SDS011;44369;43.560;19.540;2022-07-05T09:38:24;8.95;;;8.15;;
55248;SDS011;44369;43.560;19.540;2022-07-05T09:40:52;30.75;;;27.20;;
55248;SDS011;44369;43.560;19.540;2022-07-05T09:43:23;11.32;;;10.20;;
55248;SDS011;44369;43.560;19.540;2022-07-05T09:45:54;9.02;;;8.13;;
55248;SDS011;44369;43.560;19.540;2022-07-05T09:48:21;9.40;;;8.57;;
55248;SDS011;44369;43.560;19.540;2022-07-05T09:50:48;9.98;;;8.57;;
55248;SDS011;44369;43.560;19.540;2022-07-05T09:53:15;10.30;;;9.40;;
55248;SDS011;44369;43.560;19.540;2022-07-05T09:55:41;10.35;;;9.07;;
55248;SDS011;44369;43.560;19.540;2022-07-05T09:58:07;10.60;;;8.85;;
55248;SDS011;44369;43.560;19.540;2022-07-05T10:00:33;10.18;;;9.38;;
55248;SDS011;44369;43.560;19.540;2022-07-05T10:02:58;11.57;;;9.35;;
55248;SDS011;44369;43.560;19.540;2022-07-05T10:05:31;11.45;;;10.40;;
55248;SDS011;44369;43.560;19.540;2022-07-05T10:08:01;12.85;;;10.00;;
55248;SDS011;44369;43.560;19.540;2022-07-05T10:10:28;9.98;;;8.98;;
55248;SDS011;44369;43.560;19.540;2022-07-05T10:12:55;10.93;;;9.85;;
55248;SDS011;44369;43.560;19.540;2022-07-05T10:15:24;11.57;;;10.63;;
55248;SDS011;44369;43.560;19.540;2022-07-05T10:17:56;10.05;;;9.15;;
55248;SDS011;44369;43.560;19.540;2022-07-05T10:23:06;12.00;;;10.90;;
55248;SDS011;44369;43.560;19.540;2022-07-05T10:25:37;11.80;;;10.60;;
55248;SDS011;44369;43.560;19.540;2022-07-05T10:28:04;12.48;;;10.88;;
55248;SDS011;44369;43.560;19.540;2022-07-05T10:30:31;14.43;;;13.02;;
55248;SDS011;44369;43.560;19.540;2022-07-05T10:32:57;12.57;;;11.30;;
55248;SDS011;44369;43.560;19.540;2022-07-05T10:35:24;13.15;;;11.85;;
55248;SDS011;44369;43.560;19.540;2022-07-05T10:37:50;11.95;;;10.85;;
55248;SDS011;44369;43.560;19.540;2022-07-05T10:40:16;12.48;;;10.32;;
55248;SDS011;44369;43.560;19.540;2022-07-05T10:42:48;11.88;;;10.63;;
55248;SDS011;44369;43.560;19.540;2022-07-05T10:45:31;11.40;;;10.15;;
55248;SDS011;44369;43.560;19.540;2022-07-05T10:53:20;14.20;;;10.40;;
55248;SDS011;44369;43.560;19.540;2022-07-05T11:03:44;15.85;;;11.65;;
55248;SDS011;44369;43.560;19.540;2022-07-05T11:06:27;17.83;;;11.40;;
55248;SDS011;44369;43.560;19.540;2022-07-05T11:11:23;18.65;;;11.93;;
55248;SDS011;44369;43.560;19.540;2022-07-05T11:13:51;13.02;;;10.55;;
55248;SDS011;44369;43.560;19.540;2022-07-05T11:18:44;11.90;;;10.70;;
55248;SDS011;44369;43.560;19.540;2022-07-05T11:21:17;16.75;;;10.77;;
55248;SDS011;44369;43.560;19.540;2022-07-05T11:23:47;19.65;;;11.15;;
55248;SDS011;44369;43.560;19.540;2022-07-05T11:26:15;11.70;;;10.55;;
55248;SDS011;44369;43.560;19.540;2022-07-05T11:28:46;14.13;;;9.98;;
55248;SDS011;44369;43.560;19.540;2022-07-05T11:31:58;18.85;;;9.93;;
55248;SDS011;44369;43.560;19.540;2022-07-05T11:34:13;12.18;;;9.85;;
55248;SDS011;44369;43.560;19.540;2022-07-05T11:36:40;15.45;;;9.85;;
55248;SDS011;44369;43.560;19.540;2022-07-05T11:39:13;18.10;;;10.73;;
55248;SDS011;44369;43.560;19.540;2022-07-05T11:41:42;11.25;;;10.20;;
55248;SDS011;44369;43.560;19.540;2022-07-05T11:44:10;11.95;;;8.48;;
55248;SDS011;44369;43.560;19.540;2022-07-05T11:46:36;10.60;;;9.20;;
55248;SDS011;44369;43.560;19.540;2022-07-05T11:49:02;10.50;;;9.50;;
55248;SDS011;44369;43.560;19.540;2022-07-05T11:51:28;9.85;;;9.05;;
55248;SDS011;44369;43.560;19.540;2022-07-05T11:53:54;10.18;;;9.18;;
55248;SDS011;44369;43.560;19.540;2022-07-05T11:56:20;10.82;;;9.82;;
55248;SDS011;44369;43.560;19.540;2022-07-05T11:58:46;10.93;;;9.75;;
55248;SDS011;44369;43.560;19.540;2022-07-05T12:01:12;11.20;;;9.88;;
55248;SDS011;44369;43.560;19.540;2022-07-05T12:03:37;10.80;;;9.57;;
55248;SDS011;44369;43.560;19.540;2022-07-05T12:06:13;10.27;;;9.38;;
55248;SDS011;44369;43.560;19.540;2022-07-05T12:08:40;11.43;;;9.73;;
55248;SDS011;44369;43.560;19.540;2022-07-05T12:11:09;15.13;;;10.05;;
55248;SDS011;44369;43.560;19.540;2022-07-05T12:13:55;12.55;;;10.02;;
55248;SDS011;44369;43.560;19.540;2022-07-05T12:16:20;15.73;;;13.20;;
55248;SDS011;44369;43.560;19.540;2022-07-05T12:18:53;16.05;;;13.68;;
55248;SDS011;44369;43.560;19.540;2022-07-05T12:21:20;15.07;;;13.60;;
55248;SDS011;44369;43.560;19.540;2022-07-05T12:23:50;11.70;;;10.48;;
55248;SDS011;44369;43.560;19.540;2022-07-05T12:26:17;11.93;;;9.57;;
55248;SDS011;44369;43.560;19.540;2022-07-05T12:28:43;12.20;;;10.98;;
55248;SDS011;44369;43.560;19.540;2022-07-05T12:31:20;10.45;;;9.35;;
55248;SDS011;44369;43.560;19.540;2022-07-05T12:33:47;13.07;;;11.68;;
55248;SDS011;44369;43.560;19.540;2022-07-05T12:36:14;10.00;;;9.18;;
55248;SDS011;44369;43.560;19.540;2022-07-05T12:38:41;11.23;;;10.07;;
55248;SDS011;44369;43.560;19.540;2022-07-05T12:41:07;12.75;;;9.35;;
55248;SDS011;44369;43.560;19.540;2022-07-05T12:43:47;13.27;;;10.50;;
55248;SDS011;44369;43.560;19.540;2022-07-05T12:46:14;13.65;;;9.45;;
55248;SDS011;44369;43.560;19.540;2022-07-05T12:48:40;11.80;;;10.60;;
55248;SDS011;44369;43.560;19.540;2022-07-05T12:51:06;17.80;;;13.98;;
55248;SDS011;44369;43.560;19.540;2022-07-05T12:53:33;19.35;;;15.13;;
55248;SDS011;44369;43.560;19.540;2022-07-05T12:56:22;12.88;;;11.73;;
55248;SDS011;44369;43.560;19.540;2022-07-05T12:59:08;10.50;;;9.48;;
55248;SDS011;44369;43.560;19.540;2022-07-05T13:01:36;11.60;;;10.45;;
55248;SDS011;44369;43.560;19.540;2022-07-05T13:04:11;12.95;;;10.60;;
55248;SDS011;44369;43.560;19.540;2022-07-05T13:06:39;12.77;;;10.50;;
55248;SDS011;44369;43.560;19.540;2022-07-05T13:14:34;10.77;;;9.85;;
55248;SDS011;44369;43.560;19.540;2022-07-05T13:17:01;11.10;;;10.00;;
55248;SDS011;44369;43.560;19.540;2022-07-05T13:19:26;11.05;;;9.98;;
55248;SDS011;44369;43.560;19.540;2022-07-05T13:21:52;11.70;;;10.10;;
55248;SDS011;44369;43.560;19.540;2022-07-05T13:24:18;11.80;;;10.70;;
55248;SDS011;44369;43.560;19.540;2022-07-05T13:26:44;12.15;;;10.18;;
55248;SDS011;44369;43.560;19.540;2022-07-05T13:29:10;12.48;;;10.07;;
55248;SDS011;44369;43.560;19.540;2022-07-05T13:31:35;10.55;;;9.40;;
55248;SDS011;44369;43.560;19.540;2022-07-05T13:34:01;11.60;;;10.40;;
55248;SDS011;44369;43.560;19.540;2022-07-05T13:36:27;10.45;;;9.43;;
55248;SDS011;44369;43.560;19.540;2022-07-05T13:38:53;12.13;;;10.77;;
55248;SDS011;44369;43.560;19.540;2022-07-05T13:41:19;10.55;;;9.65;;
55248;SDS011;44369;43.560;19.540;2022-07-05T13:43:44;15.07;;;9.73;;
55248;SDS011;44369;43.560;19.540;2022-07-05T13:46:11;11.07;;;10.07;;
55248;SDS011;44369;43.560;19.540;2022-07-05T13:48:37;10.57;;;9.57;;
55248;SDS011;44369;43.560;19.540;2022-07-05T13:51:03;11.52;;;9.82;;
55248;SDS011;44369;43.560;19.540;2022-07-05T13:53:29;14.13;;;10.40;;
55248;SDS011;44369;43.560;19.540;2022-07-05T13:55:55;11.23;;;9.95;;
55248;SDS011;44369;43.560;19.540;2022-07-05T13:58:21;11.05;;;9.57;;
55248;SDS011;44369;43.560;19.540;2022-07-05T14:00:47;11.30;;;10.18;;
55248;SDS011;44369;43.560;19.540;2022-07-05T14:03:12;10.60;;;9.63;;
55248;SDS011;44369;43.560;19.540;2022-07-05T14:05:38;11.10;;;9.88;;
55248;SDS011;44369;43.560;19.540;2022-07-05T14:08:04;10.50;;;9.60;;
55248;SDS011;44369;43.560;19.540;2022-07-05T14:10:29;10.32;;;9.20;;
55248;SDS011;44369;43.560;19.540;2022-07-05T14:12:55;12.23;;;9.15;;
55248;SDS011;44369;43.560;19.540;2022-07-05T14:15:21;10.98;;;9.88;;
55248;SDS011;44369;43.560;19.540;2022-07-05T14:17:46;12.07;;;10.30;;
55248;SDS011;44369;43.560;19.540;2022-07-05T14:20:12;11.63;;;10.52;;
55248;SDS011;44369;43.560;19.540;2022-07-05T14:22:38;31.92;;;11.25;;
55248;SDS011;44369;43.560;19.540;2022-07-05T14:25:04;10.43;;;9.30;;
55248;SDS011;44369;43.560;19.540;2022-07-05T14:27:30;10.35;;;9.50;;
55248;SDS011;44369;43.560;19.540;2022-07-05T14:29:56;11.05;;;9.95;;
55248;SDS011;44369;43.560;19.540;2022-07-05T14:32:22;10.25;;;9.18;;
55248;SDS011;44369;43.560;19.540;2022-07-05T14:34:48;11.18;;;10.07;;
55248;SDS011;44369;43.560;19.540;2022-07-05T14:37:14;11.65;;;9.52;;
55248;SDS011;44369;43.560;19.540;2022-07-05T14:39:40;11.48;;;10.00;;
55248;SDS011;44369;43.560;19.540;2022-07-05T14:42:06;11.32;;;9.90;;
55248;SDS011;44369;43.560;19.540;2022-07-05T14:44:32;10.63;;;9.55;;
55248;SDS011;44369;43.560;19.540;2022-07-05T14:46:58;12.20;;;10.93;;
55248;SDS011;44369;43.560;19.540;2022-07-05T14:49:24;32.13;;;14.07;;
55248;SDS011;44369;43.560;19.540;2022-07-05T14:51:49;14.25;;;10.15;;
55248;SDS011;44369;43.560;19.540;2022-07-05T14:54:15;12.63;;;10.77;;